Quick Links (Output Below):   Max & Min Temps   /   Climate Reports   /   Zone Forecasts
River Forecasts   /   Forestry Forecasts   /   Aviation Forecasts   /   Radars   /   Features

Terminal Aerodrome Forecast (Highfill)

Pick a Site:
Arkadelphia | El Dorado | Fayetteville | Fort Smith | Harrison | Highfill | Hot Springs | Jonesboro
Little Rock | Monticello | Mountain Home | Pine Bluff | Texarkana
 Forecast 

KXNA 252320Z 2600/2624 18012G20KT P6SM BKN025
     FM260100 17008KT P6SM FEW035
     FM260600 18007KT 4SM BR OVC015
     FM261800 17010G20KT P6SM BKN025
     FM262000 16012G20KT P6SM BKN035=


 Latest METARs (Observations) 
How to Decode METARs
00Z KXNA 252353Z 19007KT 10SM OVC024 27/23 A2994 RMK AO2 SLP126
         T02670228 10278 20250 55004
         
***** Today's Observations (Above) *****


23Z KXNA 252253Z 18012G20KT 10SM BKN028 27/22 A2994 RMK AO2 SLP125
         T02720222
         
22Z KXNA 252153Z 20015G20KT 10SM CLR 27/22 A2995 RMK AO2 SLP127
         T02720217
         
21Z KXNA 252053Z 19014G22KT 10SM SCT028 27/21 A2996 RMK AO2 PK WND
         18027/1957 SLP130 T02670211 56010
         
20Z KXNA 251953Z 18019G26KT 10SM FEW030 27/21 A2996 RMK AO2 PK WND
         19027/1931 SLP132 T02720211
         
19Z KXNA 251853Z 20016G24KT 10SM FEW034 27/20 A2997 RMK AO2 SLP133
         T02720200
         
17Z KXNA 251653Z 15015KT 10SM CLR 22/18 A3000 RMK AO2 SLP146
         T02170178
         
16Z KXNA 251553Z 19008KT 10SM CLR 18/17 A2997 RMK AO2 PK WND
         08027/1457 LTG DSNT SE AND S RAE14 SLP134 P0000 T01830167
         
15Z KXNA 251453Z 09017G23KT 10SM VCTS -RA FEW043 SCT075 OVC100 17/17
         A3000 RMK AO2 PK WND 02027/1405 WSHFT 1428 LTG DSNT ALQDS
         TSE19 SLP147 P0048 60119 T01720167 58018
         
14Z KXNA 251353Z 35021G30KT 1/2SM +TSRA FG FEW012 BKN028 OVC041 17/17
         A3007 RMK AO2 PK WND 35030/1346 LTG DSNT ALQDS SLP173 P0065
         T01720172 RVRNO
         
***** Yesterday's Observations (Above) *****


Back to Main Page
http://www.srh.noaa.gov/lzk/qfcst.php

USA.gov is the U.S. government's official web portal to all federal, state and local government web resources and services.